Time;durP1;ratioP1;P1;durP2;ratioP2;P2;SDS_P1;SDS_P2;PMS_P1;PMS_P2;Temp;Humidity;BMP_temperature;BMP_pressure;BME280_temperature;BME280_humidity;BME280_pressure;Samples;Min_cycle;Max_cycle;Signal;HPM_P1;HPM_P2
2022/08/28 00:01:36;;;;;;;12.17;3.80;;;;;;;;;;4975471;28;20649;-68
2022/08/28 00:04:02;;;;;;;11.23;4.60;;;;;;;;;;4975574;28;20587;-68
2022/08/28 00:06:28;;;;;;;9.70;5.13;;;;;;;;;;4974156;28;20267;-67
2022/08/28 00:08:54;;;;;;;9.70;4.63;;;;;;;;;;4975887;28;20590;-68
2022/08/28 00:11:20;;;;;;;7.67;4.37;;;;;;;;;;4975733;28;20205;-67
2022/08/28 00:13:46;;;;;;;7.83;3.60;;;;;;;;;;4974024;28;20237;-67
2022/08/28 00:16:12;;;;;;;6.63;3.47;;;;;;;;;;4975294;28;20181;-68
2022/08/28 00:18:38;;;;;;;8.53;3.93;;;;;;;;;;4973998;28;20587;-67
2022/08/28 00:21:05;;;;;;;11.27;4.43;;;;;;;;;;4973938;28;20192;-68
2022/08/28 00:23:32;;;;;;;13.00;5.70;;;;;;;;;;4973849;28;20212;-68
2022/08/28 00:25:58;;;;;;;10.03;4.97;;;;;;;;;;4975127;28;20281;-68
2022/08/28 00:28:24;;;;;;;11.60;4.73;;;;;;;;;;4973865;28;20181;-68
2022/08/28 00:30:51;;;;;;;14.47;5.10;;;;;;;;;;4975069;28;20534;-69
2022/08/28 00:33:29;;;;;;;16.27;6.30;;;;;;;;;;4973722;28;20242;-68
2022/08/28 00:35:56;;;;;;;12.70;5.03;;;;;;;;;;4973642;28;20654;-67
2022/08/28 00:38:22;;;;;;;13.70;5.03;;;;;;;;;;4974836;28;20181;-68
2022/08/28 00:40:50;;;;;;;10.57;5.37;;;;;;;;;;4973637;28;20185;-68
2022/08/28 00:43:52;;;;;;;14.77;5.63;;;;;;;;;;4973536;28;20205;-68
2022/08/28 00:46:20;;;;;;;11.37;5.70;;;;;;;;;;4934752;29;20197;-68
2022/08/28 00:48:46;;;;;;;13.93;5.60;;;;;;;;;;4966926;28;20573;-67
2022/08/28 00:53:59;;;;;;;10.77;4.97;;;;;;;;;;4975121;28;20696;-68
2022/08/28 00:56:27;;;;;;;12.97;4.73;;;;;;;;;;4974612;28;20256;-68
2022/08/28 00:58:56;;;;;;;15.97;5.47;;;;;;;;;;4974617;28;20224;-68
2022/08/28 01:01:23;;;;;;;17.53;5.87;;;;;;;;;;4974280;28;20607;-68
2022/08/28 01:03:49;;;;;;;12.87;5.00;;;;;;;;;;4973150;28;20220;-68
2022/08/28 01:06:16;;;;;;;13.30;5.43;;;;;;;;;;4974515;28;20547;-68
2022/08/28 01:08:44;;;;;;;10.60;4.80;;;;;;;;;;4974488;28;20174;-67
2022/08/28 01:11:12;;;;;;;7.93;4.50;;;;;;;;;;4974697;28;20185;-67
2022/08/28 01:13:40;;;;;;;11.93;4.50;;;;;;;;;;4974341;28;20181;-67
2022/08/28 01:16:07;;;;;;;10.93;3.73;;;;;;;;;;4974277;28;20646;-67
2022/08/28 01:18:34;;;;;;;11.00;4.27;;;;;;;;;;4974264;28;20577;-68
2022/08/28 01:21:09;;;;;;;8.63;4.70;;;;;;;;;;4973143;28;20189;-68
2022/08/28 01:23:50;;;;;;;9.83;4.83;;;;;;;;;;4974499;28;20553;-68
2022/08/28 01:26:16;;;;;;;8.80;4.47;;;;;;;;;;4974913;28;20622;-68
2022/08/28 01:28:42;;;;;;;12.33;4.97;;;;;;;;;;4973080;28;20239;-67
2022/08/28 01:31:13;;;;;;;11.30;4.57;;;;;;;;;;4974344;28;20714;-67
2022/08/28 01:33:39;;;;;;;9.77;4.57;;;;;;;;;;4974326;28;20215;-67
2022/08/28 01:36:06;;;;;;;11.57;4.87;;;;;;;;;;4974684;28;20212;-67
2022/08/28 01:38:32;;;;;;;13.30;4.83;;;;;;;;;;4974204;28;20183;-67
2022/08/28 01:40:58;;;;;;;14.17;4.97;;;;;;;;;;4974206;28;20259;-68
2022/08/28 01:43:25;;;;;;;12.77;5.80;;;;;;;;;;4972859;28;20711;-68
2022/08/28 01:45:53;;;;;;;12.43;5.00;;;;;;;;;;4972815;28;20181;-68
2022/08/28 01:48:20;;;;;;;12.47;5.03;;;;;;;;;;4974044;28;20173;-68
2022/08/28 01:50:46;;;;;;;14.83;5.67;;;;;;;;;;4973976;28;20181;-68
2022/08/28 01:53:14;;;;;;;10.00;5.13;;;;;;;;;;4974105;28;20174;-68
2022/08/28 01:55:41;;;;;;;10.93;4.33;;;;;;;;;;4972679;28;20232;-68
2022/08/28 01:58:07;;;;;;;8.13;4.07;;;;;;;;;;4972680;28;20187;-70
2022/08/28 02:00:34;;;;;;;13.77;4.80;;;;;;;;;;4974251;28;20181;-68
2022/08/28 02:03:00;;;;;;;11.83;4.53;;;;;;;;;;4972680;28;20646;-68
2022/08/28 02:05:29;;;;;;;10.87;4.53;;;;;;;;;;4973792;28;20217;-68
2022/08/28 02:07:56;;;;;;;10.93;4.43;;;;;;;;;;4973958;28;20268;-68
2022/08/28 02:10:23;;;;;;;8.93;3.87;;;;;;;;;;4974196;28;20239;-68
2022/08/28 02:12:49;;;;;;;11.40;4.53;;;;;;;;;;4975041;28;20224;-68
2022/08/28 02:15:15;;;;;;;10.73;4.40;;;;;;;;;;4978034;28;20263;-67
2022/08/28 02:17:41;;;;;;;12.37;4.23;;;;;;;;;;4977535;28;20189;-68
2022/08/28 02:20:07;;;;;;;13.00;4.50;;;;;;;;;;4976373;28;20566;-68
2022/08/28 02:22:33;;;;;;;10.10;4.07;;;;;;;;;;4976197;28;20239;-68
2022/08/28 02:24:59;;;;;;;11.20;4.10;;;;;;;;;;4975814;28;20311;-68
2022/08/28 02:27:25;;;;;;;12.60;4.50;;;;;;;;;;4977342;28;20268;-67
2022/08/28 02:29:51;;;;;;;22.87;5.63;;;;;;;;;;4977827;28;20220;-68
2022/08/28 02:32:17;;;;;;;15.70;4.70;;;;;;;;;;4975975;28;20182;-68
2022/08/28 02:34:44;;;;;;;14.80;5.30;;;;;;;;;;4977557;28;20259;-68
2022/08/28 02:37:12;;;;;;;15.17;5.37;;;;;;;;;;4977092;28;20192;-67
2022/08/28 02:39:38;;;;;;;15.00;5.50;;;;;;;;;;4977173;28;20572;-68
2022/08/28 02:42:04;;;;;;;18.80;5.80;;;;;;;;;;4977002;28;20181;-68
2022/08/28 02:44:30;;;;;;;14.13;5.20;;;;;;;;;;4975565;28;20222;-67
2022/08/28 02:46:56;;;;;;;13.73;5.40;;;;;;;;;;4977076;28;20267;-69
2022/08/28 02:49:22;;;;;;;12.60;4.93;;;;;;;;;;4977148;28;20185;-68
2022/08/28 02:51:49;;;;;;;12.43;5.17;;;;;;;;;;4977057;28;20185;-67
2022/08/28 02:54:14;;;;;;;19.63;5.70;;;;;;;;;;4976761;28;20213;-68
2022/08/28 02:56:40;;;;;;;12.30;5.50;;;;;;;;;;4976699;28;20307;-68
2022/08/28 02:59:06;;;;;;;18.63;6.07;;;;;;;;;;4976810;28;20185;-68
2022/08/28 03:01:33;;;;;;;12.40;5.70;;;;;;;;;;4976866;28;20649;-66
2022/08/28 03:04:01;;;;;;;14.90;5.57;;;;;;;;;;4975344;28;20229;-68
2022/08/28 03:06:28;;;;;;;19.07;6.20;;;;;;;;;;4975372;28;20231;-68
2022/08/28 03:08:53;;;;;;;19.07;6.67;;;;;;;;;;4976582;28;20177;-68
2022/08/28 03:11:19;;;;;;;18.63;6.10;;;;;;;;;;4975277;28;20297;-68
2022/08/28 03:13:46;;;;;;;14.70;5.87;;;;;;;;;;4977048;28;20217;-67
2022/08/28 03:16:12;;;;;;;17.10;6.40;;;;;;;;;;4975187;28;20181;-68
2022/08/28 03:18:38;;;;;;;13.00;6.83;;;;;;;;;;4976547;28;20188;-68
2022/08/28 03:21:04;;;;;;;17.80;7.43;;;;;;;;;;4976458;28;20277;-68
2022/08/28 03:23:30;;;;;;;19.37;7.47;;;;;;;;;;4974770;28;20574;-68
2022/08/28 03:25:58;;;;;;;21.00;9.37;;;;;;;;;;4976403;28;20200;-68
2022/08/28 03:28:28;;;;;;;28.90;13.17;;;;;;;;;;4976382;28;20307;-67
2022/08/28 03:30:54;;;;;;;38.63;14.70;;;;;;;;;;4976765;28;20173;-68
2022/08/28 03:33:20;;;;;;;32.77;15.93;;;;;;;;;;4976807;28;20706;-68
2022/08/28 03:35:46;;;;;;;27.97;12.63;;;;;;;;;;4976202;28;20201;-67
2022/08/28 03:38:12;;;;;;;31.60;13.67;;;;;;;;;;4976126;28;20612;-68
2022/08/28 03:40:41;;;;;;;27.50;9.50;;;;;;;;;;4976538;28;20174;-67
2022/08/28 03:43:07;;;;;;;21.13;8.57;;;;;;;;;;4978517;28;20708;-68
2022/08/28 03:45:33;;;;;;;15.33;6.80;;;;;;;;;;4978957;28;20283;-67
2022/08/28 03:47:59;;;;;;;16.57;6.67;;;;;;;;;;4979648;28;20181;-68
2022/08/28 03:50:25;;;;;;;11.33;6.07;;;;;;;;;;4979334;28;20575;-68
2022/08/28 03:52:51;;;;;;;19.40;7.53;;;;;;;;;;4979316;28;20192;-67
2022/08/28 03:55:18;;;;;;;13.70;6.13;;;;;;;;;;4979083;28;20689;-68
2022/08/28 03:57:44;;;;;;;10.93;5.97;;;;;;;;;;4976001;28;20181;-68
2022/08/28 04:00:12;;;;;;;11.30;5.23;;;;;;;;;;4975662;28;20185;-68
2022/08/28 04:02:38;;;;;;;14.30;5.50;;;;;;;;;;4975605;28;20177;-68
2022/08/28 04:05:05;;;;;;;13.63;5.33;;;;;;;;;;4975454;28;20255;-67
2022/08/28 04:07:31;;;;;;;9.40;4.77;;;;;;;;;;4975566;28;20177;-68
2022/08/28 04:09:57;;;;;;;12.77;5.83;;;;;;;;;;4975505;28;20200;-68
2022/08/28 04:12:23;;;;;;;15.23;5.70;;;;;;;;;;4976091;28;20653;-68
2022/08/28 04:14:49;;;;;;;22.00;6.57;;;;;;;;;;4974184;28;20279;-68
2022/08/28 04:17:15;;;;;;;13.47;6.40;;;;;;;;;;4974027;28;20620;-68
2022/08/28 04:19:43;;;;;;;20.90;7.23;;;;;;;;;;4975310;28;20248;-68
2022/08/28 04:22:09;;;;;;;18.03;6.80;;;;;;;;;;4975558;28;20582;-68
2022/08/28 04:24:35;;;;;;;15.57;6.93;;;;;;;;;;4973925;28;20383;-68
2022/08/28 04:27:01;;;;;;;20.00;7.40;;;;;;;;;;4975477;28;20209;-68
2022/08/28 04:29:27;;;;;;;17.87;7.17;;;;;;;;;;4975729;28;20181;-67
2022/08/28 04:31:53;;;;;;;15.93;8.30;;;;;;;;;;4975553;28;20224;-67
2022/08/28 04:34:19;;;;;;;23.27;9.30;;;;;;;;;;4973904;28;20205;-68
2022/08/28 04:36:45;;;;;;;15.83;8.70;;;;;;;;;;4974573;28;20676;-68
2022/08/28 04:39:11;;;;;;;24.23;9.00;;;;;;;;;;4975299;28;20185;-67
2022/08/28 04:41:38;;;;;;;19.07;8.37;;;;;;;;;;4975252;28;20184;-68
2022/08/28 04:44:05;;;;;;;17.10;6.87;;;;;;;;;;4974853;28;20215;-68
2022/08/28 04:46:31;;;;;;;17.23;6.37;;;;;;;;;;4973342;28;20224;-68
2022/08/28 04:48:57;;;;;;;15.17;6.00;;;;;;;;;;4975015;28;20181;-68
2022/08/28 04:51:23;;;;;;;11.10;6.00;;;;;;;;;;4974770;28;20188;-68
2022/08/28 04:53:48;;;;;;;13.03;5.77;;;;;;;;;;4973528;28;20228;-68
2022/08/28 04:56:15;;;;;;;15.67;5.70;;;;;;;;;;4974687;28;20247;-68
2022/08/28 04:58:42;;;;;;;14.47;5.07;;;;;;;;;;4973412;28;20181;-67
2022/08/28 05:01:14;;;;;;;11.57;5.23;;;;;;;;;;4973313;28;20192;-68
2022/08/28 05:03:40;;;;;;;13.73;5.40;;;;;;;;;;4973252;28;20204;-68
2022/08/28 05:06:06;;;;;;;12.30;5.07;;;;;;;;;;4973322;28;20181;-67
2022/08/28 05:08:33;;;;;;;14.77;5.80;;;;;;;;;;4973233;28;20208;-68
2022/08/28 05:11:09;;;;;;;16.27;5.37;;;;;;;;;;4973419;28;20287;-68
2022/08/28 05:13:36;;;;;;;14.57;5.97;;;;;;;;;;4973266;28;20180;-68
2022/08/28 05:16:02;;;;;;;23.13;6.77;;;;;;;;;;4975042;28;20205;-68
2022/08/28 05:18:28;;;;;;;16.33;5.83;;;;;;;;;;4974500;28;20215;-68
2022/08/28 05:20:54;;;;;;;14.07;6.33;;;;;;;;;;4974511;28;20185;-68
2022/08/28 05:23:20;;;;;;;17.17;6.00;;;;;;;;;;4974560;28;20236;-68
2022/08/28 05:25:47;;;;;;;18.43;6.07;;;;;;;;;;4974343;28;20224;-68
2022/08/28 05:28:15;;;;;;;16.03;5.57;;;;;;;;;;4974786;28;20605;-68
2022/08/28 05:30:42;;;;;;;15.93;6.00;;;;;;;;;;4974645;28;20634;-68
2022/08/28 05:33:09;;;;;;;15.87;5.57;;;;;;;;;;4974667;28;20264;-68
2022/08/28 05:35:36;;;;;;;12.07;5.17;;;;;;;;;;4972981;28;20204;-68
2022/08/28 05:38:02;;;;;;;18.27;5.87;;;;;;;;;;4973060;28;20182;-68
2022/08/28 05:40:28;;;;;;;13.77;5.17;;;;;;;;;;4972922;28;20184;-68
2022/08/28 05:42:54;;;;;;;22.87;5.80;;;;;;;;;;4972983;28;20189;-68
2022/08/28 05:45:21;;;;;;;14.67;5.20;;;;;;;;;;4972871;28;20243;-68
2022/08/28 05:47:48;;;;;;;13.97;5.07;;;;;;;;;;4977133;28;20173;-68
2022/08/28 05:50:14;;;;;;;15.80;5.40;;;;;;;;;;4976906;28;20208;-68
2022/08/28 05:52:41;;;;;;;18.37;5.60;;;;;;;;;;4978119;28;20188;-68
2022/08/28 05:55:07;;;;;;;20.07;5.70;;;;;;;;;;4978194;28;20565;-68
2022/08/28 05:57:33;;;;;;;15.63;5.70;;;;;;;;;;4977953;28;20256;-68
2022/08/28 06:00:01;;;;;;;12.23;5.33;;;;;;;;;;4978123;28;20264;-69
2022/08/28 06:02:26;;;;;;;14.70;4.97;;;;;;;;;;4978154;28;20271;-68
2022/08/28 06:04:53;;;;;;;12.20;4.63;;;;;;;;;;4976411;28;20299;-68
2022/08/28 06:07:19;;;;;;;15.63;5.30;;;;;;;;;;4977821;28;20170;-68
2022/08/28 06:09:45;;;;;;;17.10;5.10;;;;;;;;;;4977735;28;20260;-68
2022/08/28 06:12:11;;;;;;;17.67;5.17;;;;;;;;;;4977659;28;20181;-68
2022/08/28 06:14:37;;;;;;;16.53;5.47;;;;;;;;;;4977883;28;20725;-68
2022/08/28 06:17:03;;;;;;;10.27;5.10;;;;;;;;;;4976337;28;20280;-68
2022/08/28 06:19:30;;;;;;;13.17;5.50;;;;;;;;;;4977649;28;20177;-68
2022/08/28 06:21:57;;;;;;;16.87;5.43;;;;;;;;;;4976317;28;20263;-68
2022/08/28 06:24:24;;;;;;;19.50;6.50;;;;;;;;;;4977161;28;20217;-68
2022/08/28 06:26:51;;;;;;;19.00;6.70;;;;;;;;;;4977564;28;20181;-68
2022/08/28 06:29:18;;;;;;;15.30;5.13;;;;;;;;;;4976149;28;20176;-69
2022/08/28 06:31:44;;;;;;;15.07;4.80;;;;;;;;;;4976044;28;20714;-68
2022/08/28 06:34:11;;;;;;;16.07;4.93;;;;;;;;;;4977489;28;20201;-68
2022/08/28 06:36:41;;;;;;;18.47;5.07;;;;;;;;;;4976027;28;20186;-69
2022/08/28 06:39:08;;;;;;;13.30;4.27;;;;;;;;;;4977351;28;20717;-68
2022/08/28 06:41:39;;;;;;;11.33;4.27;;;;;;;;;;4975955;28;20185;-68
2022/08/28 06:44:05;;;;;;;13.67;4.50;;;;;;;;;;4977380;28;20209;-68
2022/08/28 06:46:32;;;;;;;10.00;4.57;;;;;;;;;;4975883;28;20181;-68
2022/08/28 06:48:58;;;;;;;15.47;4.73;;;;;;;;;;4977161;28;20185;-68
2022/08/28 06:51:24;;;;;;;17.53;5.17;;;;;;;;;;4975792;28;20185;-68
2022/08/28 06:53:50;;;;;;;16.57;4.53;;;;;;;;;;4976900;28;20275;-68
2022/08/28 06:56:18;;;;;;;9.87;4.27;;;;;;;;;;4976986;28;20181;-68
2022/08/28 06:58:45;;;;;;;13.90;4.50;;;;;;;;;;4976295;28;20199;-67
2022/08/28 07:01:11;;;;;;;17.87;4.93;;;;;;;;;;4975487;28;20193;-68
2022/08/28 07:03:37;;;;;;;14.63;5.90;;;;;;;;;;4975305;28;20240;-68
2022/08/28 07:06:04;;;;;;;13.40;4.93;;;;;;;;;;4977007;28;20540;-68
2022/08/28 07:08:31;;;;;;;14.20;4.50;;;;;;;;;;4976711;28;20173;-68
2022/08/28 07:10:58;;;;;;;14.53;4.80;;;;;;;;;;4976633;28;20184;-68
2022/08/28 07:13:24;;;;;;;19.27;5.50;;;;;;;;;;4975371;28;20250;-68
2022/08/28 07:15:50;;;;;;;14.50;5.27;;;;;;;;;;4976929;28;20615;-68
2022/08/28 07:18:16;;;;;;;15.53;5.13;;;;;;;;;;4975257;28;20185;-68
2022/08/28 07:20:42;;;;;;;19.57;6.03;;;;;;;;;;4976894;28;20551;-68
2022/08/28 07:23:08;;;;;;;11.47;4.40;;;;;;;;;;4976622;28;20181;-69
2022/08/28 07:25:38;;;;;;;14.03;4.97;;;;;;;;;;4976168;28;20697;-68
2022/08/28 07:28:04;;;;;;;17.17;4.60;;;;;;;;;;4975674;28;20268;-68
2022/08/28 07:30:30;;;;;;;12.50;5.13;;;;;;;;;;4976265;28;20204;-68
2022/08/28 07:32:56;;;;;;;9.33;4.70;;;;;;;;;;4976264;28;20213;-68
2022/08/28 07:35:22;;;;;;;14.77;5.10;;;;;;;;;;4974791;28;20288;-68
2022/08/28 07:37:48;;;;;;;10.77;4.70;;;;;;;;;;4976233;28;20558;-68
2022/08/28 07:40:14;;;;;;;16.60;4.67;;;;;;;;;;4976052;28;20598;-68
2022/08/28 07:45:24;;;;;;;9.47;3.67;;;;;;;;;;4976195;28;20227;-68
2022/08/28 07:47:50;;;;;;;9.33;3.13;;;;;;;;;;4974756;28;20601;-68
2022/08/28 07:50:17;;;;;;;9.47;3.10;;;;;;;;;;4975834;28;20181;-68
2022/08/28 07:52:43;;;;;;;6.80;3.67;;;;;;;;;;4976217;28;20257;-68
2022/08/28 07:55:08;;;;;;;10.00;4.00;;;;;;;;;;4974488;28;20240;-68
2022/08/28 07:57:35;;;;;;;9.20;3.93;;;;;;;;;;4975688;28;20193;-68
2022/08/28 08:00:01;;;;;;;10.97;3.70;;;;;;;;;;4974479;28;20501;-68
2022/08/28 08:02:28;;;;;;;7.10;3.53;;;;;;;;;;4975730;28;20267;-68
2022/08/28 08:04:54;;;;;;;7.73;3.87;;;;;;;;;;4974465;28;20227;-68
2022/08/28 08:07:20;;;;;;;8.57;3.37;;;;;;;;;;4975663;28;20174;-68
2022/08/28 08:09:46;;;;;;;8.33;3.37;;;;;;;;;;4974925;28;20260;-68
2022/08/28 08:12:13;;;;;;;9.47;3.07;;;;;;;;;;4975185;28;20264;-68
2022/08/28 08:14:40;;;;;;;6.03;3.17;;;;;;;;;;4974147;28;20205;-68
2022/08/28 08:17:07;;;;;;;16.77;4.00;;;;;;;;;;4975574;28;20182;-68
2022/08/28 08:19:33;;;;;;;10.60;3.40;;;;;;;;;;4973977;28;20252;-67
2022/08/28 08:21:59;;;;;;;8.80;3.50;;;;;;;;;;4975963;28;20654;-68
2022/08/28 08:24:27;;;;;;;6.23;3.17;;;;;;;;;;4975053;28;20217;-68
2022/08/28 08:26:54;;;;;;;7.03;3.03;;;;;;;;;;4973989;28;20272;-68
2022/08/28 08:29:20;;;;;;;5.97;3.00;;;;;;;;;;4975468;28;20594;-68
2022/08/28 08:31:54;;;;;;;8.63;3.47;;;;;;;;;;4975018;28;20665;-68
2022/08/28 08:34:19;;;;;;;5.93;3.03;;;;;;;;;;4973728;28;20204;-68
2022/08/28 08:36:45;;;;;;;7.37;3.77;;;;;;;;;;4973767;28;20185;-68
2022/08/28 08:39:11;;;;;;;8.03;3.03;;;;;;;;;;4973660;28;20181;-68
2022/08/28 08:41:46;;;;;;;10.37;3.10;;;;;;;;;;4973631;28;20196;-68
2022/08/28 08:44:21;;;;;;;6.43;2.80;;;;;;;;;;4975079;28;20243;-67
2022/08/28 08:47:06;;;;;;;6.53;2.87;;;;;;;;;;4974941;28;20652;-68
2022/08/28 08:49:37;;;;;;;8.20;3.37;;;;;;;;;;4975086;28;20545;-68
2022/08/28 08:52:06;;;;;;;7.40;2.80;;;;;;;;;;4974719;28;20205;-68
2022/08/28 08:54:32;;;;;;;8.13;3.13;;;;;;;;;;4973328;28;20585;-68
2022/08/28 08:57:00;;;;;;;7.73;3.20;;;;;;;;;;4974629;28;20177;-68
2022/08/28 08:59:29;;;;;;;6.90;3.03;;;;;;;;;;4974580;28;20275;-68
2022/08/28 09:02:04;;;;;;;9.57;2.77;;;;;;;;;;4974624;28;20675;-68
2022/08/28 09:04:49;;;;;;;10.50;3.20;;;;;;;;;;4974518;28;20634;-68
2022/08/28 09:07:20;;;;;;;7.37;2.73;;;;;;;;;;4973272;28;20649;-69
2022/08/28 09:09:48;;;;;;;9.60;3.03;;;;;;;;;;4974481;28;20360;-68
2022/08/28 09:12:19;;;;;;;5.43;3.03;;;;;;;;;;4973177;28;20272;-68
2022/08/28 09:15:07;;;;;;;9.00;3.00;;;;;;;;;;4973174;28;20204;-68
2022/08/28 09:17:46;;;;;;;9.43;3.37;;;;;;;;;;4974572;28;20642;-68
2022/08/28 09:20:17;;;;;;;4.90;3.53;;;;;;;;;;4973205;28;20220;-68
2022/08/28 09:22:44;;;;;;;9.63;3.20;;;;;;;;;;4974056;28;20176;-68
2022/08/28 09:25:11;;;;;;;7.63;3.33;;;;;;;;;;4974161;28;20685;-68
2022/08/28 09:27:46;;;;;;;7.73;3.10;;;;;;;;;;4973044;28;20181;-68
2022/08/28 09:30:12;;;;;;;7.80;3.67;;;;;;;;;;4974445;28;20172;-69
2022/08/28 09:32:45;;;;;;;8.70;3.67;;;;;;;;;;4974338;28;20256;-68
2022/08/28 09:35:11;;;;;;;7.60;3.20;;;;;;;;;;4973193;28;20224;-68
2022/08/28 09:37:38;;;;;;;11.57;3.73;;;;;;;;;;4974450;28;20547;-68
2022/08/28 09:40:15;;;;;;;8.97;3.20;;;;;;;;;;4973102;28;20189;-68
2022/08/28 09:45:40;;;;;;;10.07;3.50;;;;;;;;;;4974228;28;20286;-67
2022/08/28 09:48:17;;;;;;;9.10;3.67;;;;;;;;;;4974498;28;20621;-67
2022/08/28 09:50:56;;;;;;;9.13;3.90;;;;;;;;;;4974552;28;20166;-67
2022/08/28 09:53:22;;;;;;;12.13;3.50;;;;;;;;;;4974626;28;20154;-65
2022/08/28 09:55:48;;;;;;;9.83;3.00;;;;;;;;;;4974117;28;20205;-67
2022/08/28 09:58:14;;;;;;;6.43;3.27;;;;;;;;;;4974089;28;20666;-67
2022/08/28 10:00:42;;;;;;;12.27;3.53;;;;;;;;;;4974566;28;20224;-67
2022/08/28 10:03:15;;;;;;;6.17;3.07;;;;;;;;;;4972695;28;20544;-65
2022/08/28 10:05:51;;;;;;;5.13;2.70;;;;;;;;;;4972500;28;20690;-68
2022/08/28 10:08:26;;;;;;;6.07;3.03;;;;;;;;;;4974182;28;20169;-68
2022/08/28 10:10:59;;;;;;;5.93;2.77;;;;;;;;;;4972663;28;20169;-68
2022/08/28 10:13:30;;;;;;;8.50;3.03;;;;;;;;;;4974515;28;20252;-68
2022/08/28 10:16:04;;;;;;;9.13;3.30;;;;;;;;;;4974029;28;20158;-68
2022/08/28 10:18:30;;;;;;;5.67;2.80;;;;;;;;;;4974044;28;20598;-69
2022/08/28 10:21:02;;;;;;;8.63;3.30;;;;;;;;;;4973892;28;20265;-68
2022/08/28 10:23:31;;;;;;;10.47;3.53;;;;;;;;;;4974047;28;20243;-68
2022/08/28 10:25:57;;;;;;;4.80;2.77;;;;;;;;;;4973765;28;20201;-70
2022/08/28 10:28:38;;;;;;;7.60;2.90;;;;;;;;;;4973764;28;20181;-69
2022/08/28 10:31:12;;;;;;;6.97;3.13;;;;;;;;;;4973854;28;20173;-69
2022/08/28 10:33:38;;;;;;;6.53;2.33;;;;;;;;;;4973259;28;20196;-68
2022/08/28 10:36:11;;;;;;;6.13;2.70;;;;;;;;;;4976006;28;20766;-68
2022/08/28 10:38:49;;;;;;;8.70;3.03;;;;;;;;;;4977284;28;20252;-67
2022/08/28 10:41:23;;;;;;;11.23;3.27;;;;;;;;;;4977218;28;20288;-68
2022/08/28 10:43:51;;;;;;;13.00;3.37;;;;;;;;;;4976976;28;20200;-69
2022/08/28 10:46:23;;;;;;;6.73;2.87;;;;;;;;;;4976958;28;20612;-68
2022/08/28 10:49:07;;;;;;;11.03;2.97;;;;;;;;;;4977268;28;20232;-68
2022/08/28 10:51:47;;;;;;;8.97;3.00;;;;;;;;;;4975633;28;20226;-68
2022/08/28 10:54:25;;;;;;;4.23;2.27;;;;;;;;;;4976665;28;20209;-68
2022/08/28 10:56:54;;;;;;;13.07;3.17;;;;;;;;;;4975548;28;20180;-69
2022/08/28 10:59:21;;;;;;;6.03;2.67;;;;;;;;;;4977283;28;20181;-68
2022/08/28 11:01:47;;;;;;;6.47;3.23;;;;;;;;;;4976781;28;20181;-68
2022/08/28 11:04:18;;;;;;;5.20;2.87;;;;;;;;;;4976827;28;20213;-68
2022/08/28 11:06:47;;;;;;;5.00;2.93;;;;;;;;;;4975367;28;20568;-68
2022/08/28 11:09:23;;;;;;;5.03;2.50;;;;;;;;;;4975390;28;20214;-68
2022/08/28 11:11:51;;;;;;;6.87;3.53;;;;;;;;;;4976941;28;20244;-68
2022/08/28 11:14:28;;;;;;;10.67;3.33;;;;;;;;;;4976795;28;20251;-69
2022/08/28 11:17:00;;;;;;;7.07;2.70;;;;;;;;;;4975367;28;20180;-68
2022/08/28 11:19:26;;;;;;;6.17;2.63;;;;;;;;;;4975305;28;20696;-68
2022/08/28 11:21:55;;;;;;;8.97;2.40;;;;;;;;;;4976373;28;20189;-68
2022/08/28 11:24:24;;;;;;;6.93;2.40;;;;;;;;;;4976409;28;20255;-68
2022/08/28 11:27:04;;;;;;;9.60;3.27;;;;;;;;;;4976384;28;20177;-68
2022/08/28 11:29:49;;;;;;;7.70;3.03;;;;;;;;;;4975152;28;20173;-67
2022/08/28 11:32:36;;;;;;;6.90;2.70;;;;;;;;;;4975130;28;20185;-67
2022/08/28 11:35:25;;;;;;;6.60;2.67;;;;;;;;;;4976509;28;20257;-67
2022/08/28 11:37:52;;;;;;;5.43;2.63;;;;;;;;;;4976284;28;20212;-68
2022/08/28 11:40:27;;;;;;;5.37;2.37;;;;;;;;;;4976739;28;20231;-67
2022/08/28 11:43:13;;;;;;;3.77;2.60;;;;;;;;;;4976318;28;20185;-68
2022/08/28 11:45:42;;;;;;;6.30;2.90;;;;;;;;;;4974630;28;20217;-67
2022/08/28 11:48:27;;;;;;;5.50;2.40;;;;;;;;;;4976551;28;20178;-68
2022/08/28 11:50:55;;;;;;;7.20;2.43;;;;;;;;;;4975934;28;20213;-68
2022/08/28 11:53:27;;;;;;;5.83;2.57;;;;;;;;;;4976512;28;20190;-68
2022/08/28 11:56:06;;;;;;;5.47;2.90;;;;;;;;;;4977763;28;20572;-68
2022/08/28 11:58:39;;;;;;;6.63;2.53;;;;;;;;;;4976851;28;20649;-68
2022/08/28 12:01:10;;;;;;;4.73;2.50;;;;;;;;;;4977253;28;20240;-68
2022/08/28 12:03:38;;;;;;;4.97;2.40;;;;;;;;;;4977380;28;20638;-68
2022/08/28 12:06:05;;;;;;;4.80;2.33;;;;;;;;;;4978747;28;20221;-68
2022/08/28 12:08:50;;;;;;;4.13;2.33;;;;;;;;;;4978717;28;20185;-68
2022/08/28 12:11:35;;;;;;;5.83;2.63;;;;;;;;;;4978681;28;20275;-68
2022/08/28 12:14:00;;;;;;;5.73;2.17;;;;;;;;;;4975459;28;20571;-68
2022/08/28 12:16:26;;;;;;;6.23;2.30;;;;;;;;;;4975986;28;20193;-68
2022/08/28 12:18:52;;;;;;;3.53;2.33;;;;;;;;;;4975995;28;20252;-68
2022/08/28 12:21:21;;;;;;;5.50;2.43;;;;;;;;;;4974182;28;20649;-68
2022/08/28 12:24:01;;;;;;;8.07;2.20;;;;;;;;;;4973870;28;20578;-69
2022/08/28 12:26:29;;;;;;;9.03;2.37;;;;;;;;;;4974182;28;20184;-68
2022/08/28 12:29:06;;;;;;;6.23;2.20;;;;;;;;;;4974150;28;20255;-68
2022/08/28 12:34:31;;;;;;;6.57;2.50;;;;;;;;;;4975178;28;20207;-68
2022/08/28 12:37:01;;;;;;;5.80;2.53;;;;;;;;;;4975332;28;20165;-67
2022/08/28 12:39:28;;;;;;;3.80;2.23;;;;;;;;;;4975202;28;20170;-68
2022/08/28 12:41:54;;;;;;;4.20;2.10;;;;;;;;;;4975541;28;20548;-68
2022/08/28 12:44:28;;;;;;;4.40;2.43;;;;;;;;;;5011362;23;20237;-68
2022/08/28 12:46:55;;;;;;;6.17;2.30;;;;;;;;;;5014792;28;20167;-68
2022/08/28 12:49:33;;;;;;;3.73;2.00;;;;;;;;;;5015174;28;20180;-68
2022/08/28 12:52:16;;;;;;;6.17;2.53;;;;;;;;;;5013611;28;20180;-70
2022/08/28 12:54:42;;;;;;;4.07;2.27;;;;;;;;;;5015079;28;20696;-69
2022/08/28 12:57:10;;;;;;;3.87;2.30;;;;;;;;;;5014820;28;20182;-69
2022/08/28 12:59:36;;;;;;;8.13;2.20;;;;;;;;;;5015386;28;20259;-70
2022/08/28 13:02:03;;;;;;;4.10;2.13;;;;;;;;;;5015471;28;20671;-70
2022/08/28 13:04:36;;;;;;;4.43;2.23;;;;;;;;;;5015833;28;20258;-71
2022/08/28 13:07:06;;;;;;;3.10;2.17;;;;;;;;;;5013884;28;20187;-70
2022/08/28 13:09:33;;;;;;;4.50;2.30;;;;;;;;;;5013778;28;20179;-68
2022/08/28 13:11:58;;;;;;;11.60;2.20;;;;;;;;;;5014793;28;20180;-68
2022/08/28 13:14:35;;;;;;;4.63;2.27;;;;;;;;;;5013915;28;20268;-69
2022/08/28 13:17:02;;;;;;;3.00;2.07;;;;;;;;;;5013490;28;20183;-70
2022/08/28 13:19:29;;;;;;;5.83;2.20;;;;;;;;;;5014789;28;20254;-69
2022/08/28 13:22:00;;;;;;;6.63;2.50;;;;;;;;;;5013979;28;20186;-69
2022/08/28 13:24:26;;;;;;;3.03;1.90;;;;;;;;;;5014901;28;20219;-67
2022/08/28 13:27:18;;;;;;;8.73;2.77;;;;;;;;;;5015098;28;20521;-69
2022/08/28 13:30:08;;;;;;;4.93;2.17;;;;;;;;;;5013268;28;20218;-69
2022/08/28 13:32:36;;;;;;;4.87;2.03;;;;;;;;;;5009888;28;20202;-69
2022/08/28 13:35:04;;;;;;;4.20;2.00;;;;;;;;;;5015542;28;20211;-69
2022/08/28 13:37:45;;;;;;;8.00;2.47;;;;;;;;;;5013962;28;20187;-69
2022/08/28 13:40:12;;;;;;;3.33;1.80;;;;;;;;;;5013981;28;20191;-69
2022/08/28 13:42:38;;;;;;;6.33;2.30;;;;;;;;;;5015111;28;20187;-69
2022/08/28 13:45:05;;;;;;;3.27;2.00;;;;;;;;;;5015846;28;20278;-69
2022/08/28 13:47:31;;;;;;;8.03;2.33;;;;;;;;;;5013279;28;20187;-71
2022/08/28 13:49:57;;;;;;;3.60;1.90;;;;;;;;;;5015353;28;20512;-70
2022/08/28 13:52:23;;;;;;;2.93;2.13;;;;;;;;;;5014997;28;20176;-69
2022/08/28 13:54:49;;;;;;;3.37;1.80;;;;;;;;;;5014644;28;20210;-69
2022/08/28 13:57:15;;;;;;;3.17;1.90;;;;;;;;;;5013614;28;20603;-70
2022/08/28 13:59:41;;;;;;;3.90;2.20;;;;;;;;;;5013529;28;20195;-70
2022/08/28 14:04:54;;;;;;;6.10;2.43;;;;;;;;;;5014519;28;20277;-70
2022/08/28 14:07:20;;;;;;;6.40;3.10;;;;;;;;;;5014603;28;20239;-71
2022/08/28 14:09:46;;;;;;;4.30;2.20;;;;;;;;;;5017457;28;20180;-71
2022/08/28 14:12:12;;;;;;;3.87;2.20;;;;;;;;;;5018250;28;20222;-70
2022/08/28 14:14:38;;;;;;;5.53;2.77;;;;;;;;;;5017968;28;20196;-70
2022/08/28 14:17:05;;;;;;;5.03;2.80;;;;;;;;;;5016820;28;20299;-70
2022/08/28 14:19:31;;;;;;;5.77;2.13;;;;;;;;;;5017492;28;20542;-70
2022/08/28 14:21:58;;;;;;;6.47;2.30;;;;;;;;;;5016199;28;20641;-70
2022/08/28 14:24:24;;;;;;;3.43;2.03;;;;;;;;;;5017679;28;20206;-70
2022/08/28 14:26:50;;;;;;;9.67;1.90;;;;;;;;;;5016741;28;20243;-70
2022/08/28 14:29:17;;;;;;;5.27;2.33;;;;;;;;;;5017461;28;20248;-70
2022/08/28 14:31:44;;;;;;;4.73;2.20;;;;;;;;;;5016400;28;20180;-70
2022/08/28 14:34:12;;;;;;;6.00;2.47;;;;;;;;;;5017806;28;20234;-70
2022/08/28 14:36:39;;;;;;;3.93;2.10;;;;;;;;;;5017647;28;20188;-69
2022/08/28 14:39:06;;;;;;;3.77;2.00;;;;;;;;;;5016176;28;20179;-69
2022/08/28 14:41:33;;;;;;;4.57;2.13;;;;;;;;;;5015963;28;20186;-70
2022/08/28 14:43:59;;;;;;;4.20;2.20;;;;;;;;;;5018021;28;20281;-69
2022/08/28 14:46:27;;;;;;;6.30;2.63;;;;;;;;;;5018234;28;20606;-70
2022/08/28 14:48:55;;;;;;;2.17;1.83;;;;;;;;;;5018259;28;20203;-70
2022/08/28 14:51:21;;;;;;;4.93;2.33;;;;;;;;;;5017470;28;20175;-69
2022/08/28 14:53:47;;;;;;;4.70;1.90;;;;;;;;;;5015536;28;20279;-70
2022/08/28 14:56:13;;;;;;;3.87;1.90;;;;;;;;;;5017042;28;20186;-70
2022/08/28 14:58:39;;;;;;;4.27;2.07;;;;;;;;;;5015605;28;20186;-69